sensor_id;sensor_type;location;lat;lon;timestamp;P1;durP1;ratioP1;P2;durP2;ratioP2
2854;SDS011;1435;49.472;10.940;2022-08-19T00:01:39;20.03;;;17.97;;
2854;SDS011;1435;49.472;10.940;2022-08-19T00:06:42;20.70;;;18.90;;
2854;SDS011;1435;49.472;10.940;2022-08-19T00:11:47;19.60;;;17.80;;
2854;SDS011;1435;49.472;10.940;2022-08-19T00:16:49;20.50;;;18.63;;
2854;SDS011;1435;49.472;10.940;2022-08-19T00:21:54;19.63;;;17.63;;
2854;SDS011;1435;49.472;10.940;2022-08-19T00:26:57;21.63;;;19.47;;
2854;SDS011;1435;49.472;10.940;2022-08-19T00:31:59;21.60;;;19.50;;
2854;SDS011;1435;49.472;10.940;2022-08-19T00:37:00;20.03;;;18.10;;
2854;SDS011;1435;49.472;10.940;2022-08-19T00:42:04;22.63;;;20.47;;
2854;SDS011;1435;49.472;10.940;2022-08-19T00:47:06;19.93;;;18.13;;
2854;SDS011;1435;49.472;10.940;2022-08-19T00:52:10;21.60;;;19.60;;
2854;SDS011;1435;49.472;10.940;2022-08-19T00:57:17;20.33;;;18.53;;
2854;SDS011;1435;49.472;10.940;2022-08-19T01:02:23;21.50;;;19.57;;
2854;SDS011;1435;49.472;10.940;2022-08-19T01:07:25;23.47;;;19.90;;
2854;SDS011;1435;49.472;10.940;2022-08-19T01:12:28;22.13;;;20.17;;
2854;SDS011;1435;49.472;10.940;2022-08-19T01:17:31;23.03;;;20.83;;
2854;SDS011;1435;49.472;10.940;2022-08-19T01:22:35;20.77;;;18.77;;
2854;SDS011;1435;49.472;10.940;2022-08-19T01:27:47;23.03;;;20.80;;
2854;SDS011;1435;49.472;10.940;2022-08-19T01:32:51;23.23;;;20.87;;
2854;SDS011;1435;49.472;10.940;2022-08-19T01:37:55;22.77;;;20.57;;
2854;SDS011;1435;49.472;10.940;2022-08-19T01:42:59;27.47;;;22.20;;
2854;SDS011;1435;49.472;10.940;2022-08-19T01:48:02;22.87;;;20.53;;
2854;SDS011;1435;49.472;10.940;2022-08-19T01:53:07;29.13;;;23.53;;
2854;SDS011;1435;49.472;10.940;2022-08-19T01:58:15;26.33;;;23.83;;
2854;SDS011;1435;49.472;10.940;2022-08-19T02:03:20;24.97;;;22.43;;
2854;SDS011;1435;49.472;10.940;2022-08-19T02:08:24;25.90;;;23.00;;
2854;SDS011;1435;49.472;10.940;2022-08-19T02:13:26;25.53;;;22.83;;
2854;SDS011;1435;49.472;10.940;2022-08-19T02:18:28;28.40;;;25.40;;
2854;SDS011;1435;49.472;10.940;2022-08-19T02:23:32;27.03;;;23.13;;
2854;SDS011;1435;49.472;10.940;2022-08-19T02:28:33;26.30;;;23.60;;
2854;SDS011;1435;49.472;10.940;2022-08-19T02:33:36;26.20;;;22.63;;
2854;SDS011;1435;49.472;10.940;2022-08-19T02:38:39;26.93;;;24.07;;
2854;SDS011;1435;49.472;10.940;2022-08-19T02:43:41;26.77;;;24.00;;
2854;SDS011;1435;49.472;10.940;2022-08-19T02:48:43;26.90;;;24.00;;
2854;SDS011;1435;49.472;10.940;2022-08-19T02:53:46;26.77;;;23.70;;
2854;SDS011;1435;49.472;10.940;2022-08-19T02:58:48;25.83;;;23.10;;
2854;SDS011;1435;49.472;10.940;2022-08-19T03:03:50;25.80;;;23.13;;
2854;SDS011;1435;49.472;10.940;2022-08-19T03:08:53;25.80;;;23.10;;
2854;SDS011;1435;49.472;10.940;2022-08-19T03:13:56;26.43;;;22.67;;
2854;SDS011;1435;49.472;10.940;2022-08-19T03:18:58;30.23;;;25.17;;
2854;SDS011;1435;49.472;10.940;2022-08-19T03:24:03;30.03;;;25.93;;
2854;SDS011;1435;49.472;10.940;2022-08-19T03:29:07;26.07;;;23.37;;
2854;SDS011;1435;49.472;10.940;2022-08-19T03:34:10;29.20;;;25.40;;
2854;SDS011;1435;49.472;10.940;2022-08-19T03:39:14;30.17;;;26.97;;
2854;SDS011;1435;49.472;10.940;2022-08-19T03:44:17;28.20;;;25.20;;
2854;SDS011;1435;49.472;10.940;2022-08-19T03:49:21;30.07;;;25.80;;
2854;SDS011;1435;49.472;10.940;2022-08-19T03:54:25;30.27;;;27.17;;
2854;SDS011;1435;49.472;10.940;2022-08-19T03:59:28;29.47;;;25.60;;
2854;SDS011;1435;49.472;10.940;2022-08-19T04:04:33;29.00;;;25.90;;
2854;SDS011;1435;49.472;10.940;2022-08-19T04:09:36;30.27;;;24.90;;
2854;SDS011;1435;49.472;10.940;2022-08-19T04:14:38;29.57;;;24.90;;
2854;SDS011;1435;49.472;10.940;2022-08-19T04:19:40;30.33;;;25.70;;
2854;SDS011;1435;49.472;10.940;2022-08-19T04:24:44;27.87;;;23.67;;
2854;SDS011;1435;49.472;10.940;2022-08-19T04:29:45;33.60;;;27.30;;
2854;SDS011;1435;49.472;10.940;2022-08-19T04:34:47;27.03;;;24.20;;
2854;SDS011;1435;49.472;10.940;2022-08-19T04:39:50;29.90;;;26.30;;
2854;SDS011;1435;49.472;10.940;2022-08-19T04:45:11;31.60;;;26.77;;
2854;SDS011;1435;49.472;10.940;2022-08-19T04:50:14;30.07;;;25.13;;
2854;SDS011;1435;49.472;10.940;2022-08-19T04:55:18;32.90;;;24.73;;
2854;SDS011;1435;49.472;10.940;2022-08-19T05:00:20;32.87;;;27.13;;
2854;SDS011;1435;49.472;10.940;2022-08-19T05:05:22;29.47;;;25.70;;
2854;SDS011;1435;49.472;10.940;2022-08-19T05:10:25;32.73;;;25.53;;
2854;SDS011;1435;49.472;10.940;2022-08-19T05:15:26;30.73;;;26.70;;
2854;SDS011;1435;49.472;10.940;2022-08-19T05:20:28;29.00;;;25.47;;
2854;SDS011;1435;49.472;10.940;2022-08-19T05:25:49;28.30;;;25.30;;
2854;SDS011;1435;49.472;10.940;2022-08-19T05:30:51;27.90;;;24.90;;
2854;SDS011;1435;49.472;10.940;2022-08-19T05:35:55;30.07;;;25.07;;
2854;SDS011;1435;49.472;10.940;2022-08-19T05:40:58;28.97;;;25.00;;
2854;SDS011;1435;49.472;10.940;2022-08-19T05:46:00;29.40;;;25.10;;
2854;SDS011;1435;49.472;10.940;2022-08-19T05:51:03;29.23;;;24.53;;
2854;SDS011;1435;49.472;10.940;2022-08-19T05:56:10;30.87;;;25.53;;
2854;SDS011;1435;49.472;10.940;2022-08-19T06:01:15;28.00;;;24.23;;
2854;SDS011;1435;49.472;10.940;2022-08-19T06:06:19;30.53;;;26.87;;
2854;SDS011;1435;49.472;10.940;2022-08-19T06:11:24;27.27;;;23.80;;
2854;SDS011;1435;49.472;10.940;2022-08-19T06:16:32;28.37;;;24.10;;
2854;SDS011;1435;49.472;10.940;2022-08-19T06:21:36;27.30;;;24.33;;
2854;SDS011;1435;49.472;10.940;2022-08-19T06:26:40;27.37;;;23.70;;
2854;SDS011;1435;49.472;10.940;2022-08-19T06:31:46;26.60;;;23.70;;
2854;SDS011;1435;49.472;10.940;2022-08-19T06:36:50;29.03;;;24.30;;
2854;SDS011;1435;49.472;10.940;2022-08-19T06:41:55;27.43;;;23.03;;
2854;SDS011;1435;49.472;10.940;2022-08-19T06:46:58;25.87;;;21.77;;
2854;SDS011;1435;49.472;10.940;2022-08-19T06:52:02;25.07;;;20.73;;
2854;SDS011;1435;49.472;10.940;2022-08-19T06:57:06;21.60;;;18.50;;
2854;SDS011;1435;49.472;10.940;2022-08-19T07:02:09;21.63;;;19.40;;
2854;SDS011;1435;49.472;10.940;2022-08-19T07:07:12;19.33;;;17.33;;
2854;SDS011;1435;49.472;10.940;2022-08-19T07:12:17;19.20;;;17.20;;
2854;SDS011;1435;49.472;10.940;2022-08-19T07:17:18;18.93;;;16.93;;
2854;SDS011;1435;49.472;10.940;2022-08-19T07:22:20;21.07;;;18.97;;
2854;SDS011;1435;49.472;10.940;2022-08-19T07:27:25;21.30;;;19.00;;
2854;SDS011;1435;49.472;10.940;2022-08-19T07:32:26;21.33;;;19.13;;
2854;SDS011;1435;49.472;10.940;2022-08-19T07:37:30;22.40;;;20.00;;
2854;SDS011;1435;49.472;10.940;2022-08-19T07:42:33;24.63;;;22.07;;
2854;SDS011;1435;49.472;10.940;2022-08-19T07:47:35;24.03;;;21.53;;
2854;SDS011;1435;49.472;10.940;2022-08-19T07:52:37;25.23;;;22.37;;
2854;SDS011;1435;49.472;10.940;2022-08-19T07:57:40;26.80;;;20.90;;
2854;SDS011;1435;49.472;10.940;2022-08-19T08:02:42;24.57;;;21.97;;
2854;SDS011;1435;49.472;10.940;2022-08-19T08:07:44;26.37;;;22.57;;
2854;SDS011;1435;49.472;10.940;2022-08-19T08:13:05;22.93;;;20.57;;
2854;SDS011;1435;49.472;10.940;2022-08-19T08:18:06;23.43;;;20.60;;
2854;SDS011;1435;49.472;10.940;2022-08-19T08:23:08;26.47;;;23.57;;
2854;SDS011;1435;49.472;10.940;2022-08-19T08:28:27;25.80;;;21.93;;
2854;SDS011;1435;49.472;10.940;2022-08-19T08:33:29;27.87;;;24.73;;
2854;SDS011;1435;49.472;10.940;2022-08-19T08:38:31;23.97;;;21.47;;
2854;SDS011;1435;49.472;10.940;2022-08-19T08:43:36;25.60;;;22.90;;
2854;SDS011;1435;49.472;10.940;2022-08-19T08:48:44;25.50;;;22.33;;
2854;SDS011;1435;49.472;10.940;2022-08-19T08:53:50;23.57;;;20.50;;
2854;SDS011;1435;49.472;10.940;2022-08-19T08:58:57;24.43;;;19.97;;
2854;SDS011;1435;49.472;10.940;2022-08-19T09:04:01;24.30;;;21.57;;
2854;SDS011;1435;49.472;10.940;2022-08-19T09:09:05;21.47;;;18.93;;
2854;SDS011;1435;49.472;10.940;2022-08-19T09:14:18;24.73;;;21.60;;
2854;SDS011;1435;49.472;10.940;2022-08-19T09:19:29;24.80;;;22.20;;
2854;SDS011;1435;49.472;10.940;2022-08-19T09:24:31;24.67;;;22.20;;
2854;SDS011;1435;49.472;10.940;2022-08-19T09:29:34;29.07;;;22.80;;
2854;SDS011;1435;49.472;10.940;2022-08-19T09:34:36;23.90;;;21.40;;
2854;SDS011;1435;49.472;10.940;2022-08-19T09:39:38;23.60;;;19.70;;
2854;SDS011;1435;49.472;10.940;2022-08-19T09:44:42;26.40;;;22.77;;
2854;SDS011;1435;49.472;10.940;2022-08-19T09:49:44;26.60;;;22.20;;
2854;SDS011;1435;49.472;10.940;2022-08-19T09:54:51;24.40;;;21.87;;
2854;SDS011;1435;49.472;10.940;2022-08-19T09:59:54;24.83;;;21.00;;
2854;SDS011;1435;49.472;10.940;2022-08-19T10:04:56;21.90;;;19.60;;
2854;SDS011;1435;49.472;10.940;2022-08-19T10:10:15;21.53;;;18.53;;
2854;SDS011;1435;49.472;10.940;2022-08-19T10:15:18;22.50;;;19.23;;
2854;SDS011;1435;49.472;10.940;2022-08-19T10:20:21;21.67;;;19.43;;
2854;SDS011;1435;49.472;10.940;2022-08-19T10:25:22;21.33;;;19.23;;
2854;SDS011;1435;49.472;10.940;2022-08-19T10:30:25;19.37;;;17.57;;
2854;SDS011;1435;49.472;10.940;2022-08-19T10:35:27;19.77;;;17.70;;
2854;SDS011;1435;49.472;10.940;2022-08-19T10:40:29;19.53;;;17.30;;
2854;SDS011;1435;49.472;10.940;2022-08-19T10:45:32;20.00;;;18.10;;
2854;SDS011;1435;49.472;10.940;2022-08-19T10:50:34;18.87;;;16.97;;
2854;SDS011;1435;49.472;10.940;2022-08-19T10:56:03;21.20;;;18.50;;
2854;SDS011;1435;49.472;10.940;2022-08-19T11:01:25;19.63;;;17.70;;
2854;SDS011;1435;49.472;10.940;2022-08-19T11:06:27;19.23;;;17.17;;
2854;SDS011;1435;49.472;10.940;2022-08-19T11:11:30;20.37;;;18.30;;
2854;SDS011;1435;49.472;10.940;2022-08-19T11:16:33;19.30;;;17.43;;
2854;SDS011;1435;49.472;10.940;2022-08-19T11:21:35;19.30;;;17.43;;
2854;SDS011;1435;49.472;10.940;2022-08-19T11:26:39;20.13;;;18.03;;
2854;SDS011;1435;49.472;10.940;2022-08-19T11:31:44;17.33;;;15.67;;
2854;SDS011;1435;49.472;10.940;2022-08-19T11:36:47;18.13;;;16.37;;
2854;SDS011;1435;49.472;10.940;2022-08-19T11:41:50;18.87;;;17.17;;
2854;SDS011;1435;49.472;10.940;2022-08-19T11:46:53;17.90;;;16.20;;
2854;SDS011;1435;49.472;10.940;2022-08-19T11:51:55;16.10;;;14.60;;
2854;SDS011;1435;49.472;10.940;2022-08-19T11:56:58;17.37;;;15.63;;
2854;SDS011;1435;49.472;10.940;2022-08-19T12:02:02;17.80;;;16.10;;
2854;SDS011;1435;49.472;10.940;2022-08-19T12:07:04;18.70;;;16.80;;
2854;SDS011;1435;49.472;10.940;2022-08-19T12:12:06;18.67;;;16.97;;
2854;SDS011;1435;49.472;10.940;2022-08-19T12:17:10;16.60;;;15.10;;
2854;SDS011;1435;49.472;10.940;2022-08-19T12:22:13;17.30;;;15.80;;
2854;SDS011;1435;49.472;10.940;2022-08-19T12:27:15;17.70;;;16.10;;
2854;SDS011;1435;49.472;10.940;2022-08-19T12:32:18;19.40;;;17.40;;
2854;SDS011;1435;49.472;10.940;2022-08-19T12:37:19;21.30;;;19.20;;
2854;SDS011;1435;49.472;10.940;2022-08-19T12:42:21;23.20;;;20.80;;
2854;SDS011;1435;49.472;10.940;2022-08-19T12:47:24;24.50;;;22.03;;
2854;SDS011;1435;49.472;10.940;2022-08-19T12:52:26;23.27;;;20.97;;
2854;SDS011;1435;49.472;10.940;2022-08-19T12:57:28;24.73;;;22.23;;
2854;SDS011;1435;49.472;10.940;2022-08-19T13:02:34;25.47;;;23.03;;
2854;SDS011;1435;49.472;10.940;2022-08-19T13:07:36;25.83;;;23.20;;
2854;SDS011;1435;49.472;10.940;2022-08-19T13:12:39;26.03;;;23.30;;
2854;SDS011;1435;49.472;10.940;2022-08-19T13:17:43;30.20;;;24.40;;
2854;SDS011;1435;49.472;10.940;2022-08-19T13:22:45;26.27;;;23.50;;
2854;SDS011;1435;49.472;10.940;2022-08-19T13:27:48;28.70;;;25.83;;
2854;SDS011;1435;49.472;10.940;2022-08-19T13:32:52;27.13;;;23.87;;
2854;SDS011;1435;49.472;10.940;2022-08-19T13:38:12;31.53;;;25.17;;
2854;SDS011;1435;49.472;10.940;2022-08-19T13:43:15;27.50;;;24.60;;
2854;SDS011;1435;49.472;10.940;2022-08-19T13:48:19;25.77;;;23.10;;
2854;SDS011;1435;49.472;10.940;2022-08-19T13:53:20;26.13;;;23.47;;
2854;SDS011;1435;49.472;10.940;2022-08-19T13:58:23;26.20;;;23.70;;
2854;SDS011;1435;49.472;10.940;2022-08-19T14:03:26;26.13;;;23.57;;
2854;SDS011;1435;49.472;10.940;2022-08-19T14:08:28;26.43;;;23.83;;
2854;SDS011;1435;49.472;10.940;2022-08-19T14:13:32;26.03;;;23.47;;
2854;SDS011;1435;49.472;10.940;2022-08-19T14:18:35;24.93;;;22.50;;
2854;SDS011;1435;49.472;10.940;2022-08-19T14:23:38;25.70;;;23.30;;
2854;SDS011;1435;49.472;10.940;2022-08-19T14:28:40;24.87;;;22.20;;
2854;SDS011;1435;49.472;10.940;2022-08-19T14:33:44;25.10;;;22.60;;
2854;SDS011;1435;49.472;10.940;2022-08-19T14:38:46;23.37;;;21.03;;
2854;SDS011;1435;49.472;10.940;2022-08-19T14:43:49;17.90;;;16.23;;
2854;SDS011;1435;49.472;10.940;2022-08-19T14:48:54;17.03;;;15.33;;
2854;SDS011;1435;49.472;10.940;2022-08-19T14:53:56;14.03;;;12.73;;
2854;SDS011;1435;49.472;10.940;2022-08-19T14:58:58;15.40;;;13.80;;
2854;SDS011;1435;49.472;10.940;2022-08-19T15:04:02;13.80;;;12.60;;
2854;SDS011;1435;49.472;10.940;2022-08-19T15:09:04;12.70;;;11.40;;
2854;SDS011;1435;49.472;10.940;2022-08-19T15:14:06;12.53;;;11.40;;
2854;SDS011;1435;49.472;10.940;2022-08-19T15:19:11;13.30;;;12.00;;
2854;SDS011;1435;49.472;10.940;2022-08-19T15:24:13;12.07;;;10.90;;
2854;SDS011;1435;49.472;10.940;2022-08-19T15:29:14;11.13;;;10.17;;
2854;SDS011;1435;49.472;10.940;2022-08-19T15:34:17;13.20;;;11.00;;
2854;SDS011;1435;49.472;10.940;2022-08-19T15:39:19;9.73;;;8.80;;
2854;SDS011;1435;49.472;10.940;2022-08-19T15:44:21;9.63;;;8.83;;
2854;SDS011;1435;49.472;10.940;2022-08-19T15:49:24;10.90;;;9.13;;
2854;SDS011;1435;49.472;10.940;2022-08-19T15:54:26;8.67;;;7.97;;
2854;SDS011;1435;49.472;10.940;2022-08-19T15:59:27;8.90;;;8.17;;
2854;SDS011;1435;49.472;10.940;2022-08-19T16:04:48;8.23;;;7.30;;
2854;SDS011;1435;49.472;10.940;2022-08-19T16:10:09;9.30;;;8.43;;
2854;SDS011;1435;49.472;10.940;2022-08-19T16:15:13;11.27;;;10.10;;
2854;SDS011;1435;49.472;10.940;2022-08-19T16:20:16;9.23;;;8.43;;
2854;SDS011;1435;49.472;10.940;2022-08-19T16:25:21;10.70;;;9.80;;
2854;SDS011;1435;49.472;10.940;2022-08-19T16:30:26;9.70;;;8.63;;
2854;SDS011;1435;49.472;10.940;2022-08-19T16:35:29;9.87;;;8.57;;
2854;SDS011;1435;49.472;10.940;2022-08-19T16:40:31;8.37;;;7.67;;
2854;SDS011;1435;49.472;10.940;2022-08-19T16:45:33;8.47;;;7.67;;
2854;SDS011;1435;49.472;10.940;2022-08-19T16:50:36;7.87;;;7.17;;
2854;SDS011;1435;49.472;10.940;2022-08-19T16:55:37;8.63;;;7.93;;
2854;SDS011;1435;49.472;10.940;2022-08-19T17:00:40;7.73;;;7.13;;
2854;SDS011;1435;49.472;10.940;2022-08-19T17:05:43;10.67;;;7.77;;
2854;SDS011;1435;49.472;10.940;2022-08-19T17:10:46;8.60;;;7.90;;
2854;SDS011;1435;49.472;10.940;2022-08-19T17:15:48;11.23;;;8.53;;
2854;SDS011;1435;49.472;10.940;2022-08-19T17:20:51;9.90;;;8.77;;
2854;SDS011;1435;49.472;10.940;2022-08-19T17:25:55;9.30;;;8.40;;
2854;SDS011;1435;49.472;10.940;2022-08-19T17:30:58;10.40;;;9.40;;
2854;SDS011;1435;49.472;10.940;2022-08-19T17:36:01;9.67;;;8.77;;
2854;SDS011;1435;49.472;10.940;2022-08-19T17:41:05;9.03;;;8.13;;
2854;SDS011;1435;49.472;10.940;2022-08-19T17:46:07;9.70;;;8.83;;
2854;SDS011;1435;49.472;10.940;2022-08-19T17:51:13;9.80;;;8.90;;
2854;SDS011;1435;49.472;10.940;2022-08-19T17:56:16;8.93;;;8.13;;
2854;SDS011;1435;49.472;10.940;2022-08-19T18:01:18;10.13;;;9.23;;
2854;SDS011;1435;49.472;10.940;2022-08-19T18:06:21;11.67;;;10.47;;
2854;SDS011;1435;49.472;10.940;2022-08-19T18:11:23;12.10;;;10.90;;
2854;SDS011;1435;49.472;10.940;2022-08-19T18:16:25;9.80;;;8.90;;
2854;SDS011;1435;49.472;10.940;2022-08-19T18:21:28;9.97;;;8.97;;
2854;SDS011;1435;49.472;10.940;2022-08-19T18:26:30;8.63;;;7.83;;
2854;SDS011;1435;49.472;10.940;2022-08-19T18:31:32;8.53;;;7.80;;
2854;SDS011;1435;49.472;10.940;2022-08-19T18:36:36;7.33;;;6.73;;
2854;SDS011;1435;49.472;10.940;2022-08-19T18:41:38;8.10;;;7.30;;
2854;SDS011;1435;49.472;10.940;2022-08-19T18:46:56;7.77;;;7.10;;
2854;SDS011;1435;49.472;10.940;2022-08-19T18:52:17;8.80;;;7.90;;
2854;SDS011;1435;49.472;10.940;2022-08-19T18:57:21;8.53;;;7.73;;
2854;SDS011;1435;49.472;10.940;2022-08-19T19:02:23;8.00;;;7.20;;
2854;SDS011;1435;49.472;10.940;2022-08-19T19:07:28;6.80;;;6.30;;
2854;SDS011;1435;49.472;10.940;2022-08-19T19:12:29;7.50;;;5.90;;
2854;SDS011;1435;49.472;10.940;2022-08-19T19:17:31;6.27;;;4.87;;
2854;SDS011;1435;49.472;10.940;2022-08-19T19:22:35;6.60;;;6.00;;
2854;SDS011;1435;49.472;10.940;2022-08-19T19:27:36;7.43;;;6.73;;
2854;SDS011;1435;49.472;10.940;2022-08-19T19:32:39;7.10;;;6.23;;
2854;SDS011;1435;49.472;10.940;2022-08-19T19:37:44;7.37;;;6.67;;
2854;SDS011;1435;49.472;10.940;2022-08-19T19:42:51;6.77;;;6.27;;
2854;SDS011;1435;49.472;10.940;2022-08-19T19:47:54;9.47;;;7.67;;
2854;SDS011;1435;49.472;10.940;2022-08-19T19:53:00;7.73;;;7.03;;
2854;SDS011;1435;49.472;10.940;2022-08-19T19:58:02;9.03;;;8.17;;
2854;SDS011;1435;49.472;10.940;2022-08-19T20:03:05;7.57;;;6.90;;
2854;SDS011;1435;49.472;10.940;2022-08-19T20:08:09;8.57;;;7.77;;
2854;SDS011;1435;49.472;10.940;2022-08-19T20:13:30;8.27;;;7.47;;
2854;SDS011;1435;49.472;10.940;2022-08-19T20:18:34;7.00;;;6.40;;
2854;SDS011;1435;49.472;10.940;2022-08-19T20:23:37;7.40;;;6.80;;
2854;SDS011;1435;49.472;10.940;2022-08-19T20:28:38;8.20;;;7.37;;
2854;SDS011;1435;49.472;10.940;2022-08-19T20:33:40;8.80;;;7.97;;
2854;SDS011;1435;49.472;10.940;2022-08-19T20:38:43;9.10;;;8.20;;
2854;SDS011;1435;49.472;10.940;2022-08-19T20:43:45;8.90;;;8.10;;
2854;SDS011;1435;49.472;10.940;2022-08-19T20:48:47;9.83;;;8.83;;
2854;SDS011;1435;49.472;10.940;2022-08-19T20:53:51;9.23;;;8.43;;
2854;SDS011;1435;49.472;10.940;2022-08-19T20:58:53;11.07;;;8.57;;
2854;SDS011;1435;49.472;10.940;2022-08-19T21:03:54;10.60;;;9.50;;
2854;SDS011;1435;49.472;10.940;2022-08-19T21:08:57;9.60;;;8.67;;
2854;SDS011;1435;49.472;10.940;2022-08-19T21:13:59;10.00;;;9.10;;
2854;SDS011;1435;49.472;10.940;2022-08-19T21:19:02;12.97;;;10.80;;
2854;SDS011;1435;49.472;10.940;2022-08-19T21:24:05;11.37;;;10.37;;
2854;SDS011;1435;49.472;10.940;2022-08-19T21:29:07;13.10;;;11.87;;
2854;SDS011;1435;49.472;10.940;2022-08-19T21:34:09;11.37;;;10.27;;
2854;SDS011;1435;49.472;10.940;2022-08-19T21:39:12;12.00;;;10.80;;
2854;SDS011;1435;49.472;10.940;2022-08-19T21:44:14;10.90;;;9.87;;
2854;SDS011;1435;49.472;10.940;2022-08-19T21:49:15;12.30;;;11.13;;
2854;SDS011;1435;49.472;10.940;2022-08-19T21:54:19;10.73;;;9.83;;
2854;SDS011;1435;49.472;10.940;2022-08-19T21:59:21;9.83;;;8.93;;
2854;SDS011;1435;49.472;10.940;2022-08-19T22:04:23;11.00;;;10.00;;
2854;SDS011;1435;49.472;10.940;2022-08-19T22:09:26;14.17;;;10.40;;
2854;SDS011;1435;49.472;10.940;2022-08-19T22:14:28;11.10;;;9.80;;
2854;SDS011;1435;49.472;10.940;2022-08-19T22:19:29;10.07;;;9.07;;
2854;SDS011;1435;49.472;10.940;2022-08-19T22:24:33;9.97;;;9.07;;
2854;SDS011;1435;49.472;10.940;2022-08-19T22:29:35;10.30;;;9.40;;
2854;SDS011;1435;49.472;10.940;2022-08-19T22:34:36;9.80;;;8.80;;
2854;SDS011;1435;49.472;10.940;2022-08-19T22:39:40;11.93;;;10.23;;
2854;SDS011;1435;49.472;10.940;2022-08-19T22:44:42;10.60;;;9.40;;
2854;SDS011;1435;49.472;10.940;2022-08-19T22:49:44;9.53;;;8.63;;
2854;SDS011;1435;49.472;10.940;2022-08-19T22:54:48;11.00;;;9.87;;
2854;SDS011;1435;49.472;10.940;2022-08-19T22:59:52;11.23;;;9.83;;
2854;SDS011;1435;49.472;10.940;2022-08-19T23:04:58;11.70;;;10.63;;
2854;SDS011;1435;49.472;10.940;2022-08-19T23:10:03;10.40;;;9.50;;
2854;SDS011;1435;49.472;10.940;2022-08-19T23:15:06;11.10;;;10.00;;
2854;SDS011;1435;49.472;10.940;2022-08-19T23:20:12;12.40;;;11.30;;
2854;SDS011;1435;49.472;10.940;2022-08-19T23:25:18;12.97;;;11.77;;
2854;SDS011;1435;49.472;10.940;2022-08-19T23:30:21;11.97;;;10.77;;
2854;SDS011;1435;49.472;10.940;2022-08-19T23:35:29;12.73;;;11.40;;
2854;SDS011;1435;49.472;10.940;2022-08-19T23:45:38;13.07;;;11.87;;
2854;SDS011;1435;49.472;10.940;2022-08-19T23:50:42;13.50;;;12.10;;
2854;SDS011;1435;49.472;10.940;2022-08-19T23:55:46;12.23;;;11.03;;
